sensor_id;sensor_type;location;lat;lon;timestamp;pressure;altitude;pressure_sealevel;temperature;humidity
59289;BME280;45056;47.602;9.886;2023-04-09T00:02:26;93381.78;;;5.75;67.82
59289;BME280;45056;47.602;9.886;2023-04-09T00:04:55;93381.41;;;5.73;67.79
59289;BME280;45056;47.602;9.886;2023-04-09T00:07:23;93372.16;;;5.70;67.98
59289;BME280;45056;47.602;9.886;2023-04-09T00:09:51;93384.91;;;5.70;67.86
59289;BME280;45056;47.602;9.886;2023-04-09T00:12:19;93364.47;;;5.69;67.82
59289;BME280;45056;47.602;9.886;2023-04-09T00:14:47;93374.88;;;5.70;67.78
59289;BME280;45056;47.602;9.886;2023-04-09T00:17:15;93372.56;;;5.69;67.81
59289;BME280;45056;47.602;9.886;2023-04-09T00:19:43;93371.84;;;5.65;67.66
59289;BME280;45056;47.602;9.886;2023-04-09T00:22:13;93364.53;;;5.61;67.79
59289;BME280;45056;47.602;9.886;2023-04-09T00:24:41;93367.25;;;5.58;67.59
59289;BME280;45056;47.602;9.886;2023-04-09T00:27:09;93366.13;;;5.55;67.62
59289;BME280;45056;47.602;9.886;2023-04-09T00:29:37;93358.44;;;5.54;67.60
59289;BME280;45056;47.602;9.886;2023-04-09T00:32:05;93366.13;;;5.55;67.44
59289;BME280;45056;47.602;9.886;2023-04-09T00:34:33;93355.75;;;5.54;67.39
59289;BME280;45056;47.602;9.886;2023-04-09T00:37:02;93359.97;;;5.51;67.35
59289;BME280;45056;47.602;9.886;2023-04-09T00:39:31;93352.31;;;5.49;67.31
59289;BME280;45056;47.602;9.886;2023-04-09T00:42:00;93360.41;;;5.46;67.29
59289;BME280;45056;47.602;9.886;2023-04-09T00:44:28;93364.72;;;5.40;67.40
59289;BME280;45056;47.602;9.886;2023-04-09T00:46:58;93360.50;;;5.35;67.64
59289;BME280;45056;47.602;9.886;2023-04-09T00:49:26;93364.00;;;5.32;67.84
59289;BME280;45056;47.602;9.886;2023-04-09T00:51:55;93363.25;;;5.31;67.88
59289;BME280;45056;47.602;9.886;2023-04-09T00:54:23;93370.16;;;5.32;67.82
59289;BME280;45056;47.602;9.886;2023-04-09T00:56:54;93359.75;;;5.34;67.69
59289;BME280;45056;47.602;9.886;2023-04-09T00:59:24;93368.97;;;5.37;67.63
59289;BME280;45056;47.602;9.886;2023-04-09T01:01:52;93365.88;;;5.39;67.46
59289;BME280;45056;47.602;9.886;2023-04-09T01:04:21;93365.47;;;5.40;67.60
59289;BME280;45056;47.602;9.886;2023-04-09T01:06:54;93360.84;;;5.41;67.50
59289;BME280;45056;47.602;9.886;2023-04-09T01:09:34;93358.16;;;5.37;67.55
59289;BME280;45056;47.602;9.886;2023-04-09T01:12:13;93358.97;;;5.34;67.34
59289;BME280;45056;47.602;9.886;2023-04-09T01:14:58;93350.13;;;5.30;67.49
59289;BME280;45056;47.602;9.886;2023-04-09T01:17:36;93352.09;;;5.26;67.47
59289;BME280;45056;47.602;9.886;2023-04-09T01:20:12;93348.69;;;5.14;67.41
59289;BME280;45056;47.602;9.886;2023-04-09T01:22:53;93352.59;;;5.10;67.71
59289;BME280;45056;47.602;9.886;2023-04-09T01:25:43;93346.47;;;5.05;67.47
59289;BME280;45056;47.602;9.886;2023-04-09T01:28:22;93341.44;;;5.04;67.20
59289;BME280;45056;47.602;9.886;2023-04-09T01:30:59;93342.63;;;5.03;67.41
59289;BME280;45056;47.602;9.886;2023-04-09T01:33:32;93341.84;;;5.02;67.30
59289;BME280;45056;47.602;9.886;2023-04-09T01:36:03;93340.31;;;5.01;67.31
59289;BME280;45056;47.602;9.886;2023-04-09T01:38:35;93346.47;;;5.02;67.39
59289;BME280;45056;47.602;9.886;2023-04-09T01:41:05;93347.25;;;5.02;67.19
59289;BME280;45056;47.602;9.886;2023-04-09T01:43:37;93344.94;;;5.01;67.08
59289;BME280;45056;47.602;9.886;2023-04-09T01:46:06;93349.97;;;4.99;67.15
59289;BME280;45056;47.602;9.886;2023-04-09T01:48:37;93348.84;;;4.93;67.23
59289;BME280;45056;47.602;9.886;2023-04-09T01:51:06;93338.88;;;4.86;67.44
59289;BME280;45056;47.602;9.886;2023-04-09T01:53:35;93344.69;;;4.81;67.50
59289;BME280;45056;47.602;9.886;2023-04-09T01:56:03;93338.13;;;4.78;67.67
59289;BME280;45056;47.602;9.886;2023-04-09T01:58:32;93345.84;;;4.80;67.75
59289;BME280;45056;47.602;9.886;2023-04-09T02:01:08;93341.97;;;4.81;67.55
59289;BME280;45056;47.602;9.886;2023-04-09T02:03:45;93349.66;;;4.82;67.42
59289;BME280;45056;47.602;9.886;2023-04-09T02:06:24;93353.13;;;4.83;67.40
59289;BME280;45056;47.602;9.886;2023-04-09T02:09:00;93358.16;;;4.81;67.33
59289;BME280;45056;47.602;9.886;2023-04-09T02:11:32;93358.94;;;4.78;67.13
59289;BME280;45056;47.602;9.886;2023-04-09T02:14:06;93349.75;;;4.71;67.27
59289;BME280;45056;47.602;9.886;2023-04-09T02:16:38;93352.84;;;4.66;67.67
59289;BME280;45056;47.602;9.886;2023-04-09T02:19:07;93349.06;;;4.56;67.50
59289;BME280;45056;47.602;9.886;2023-04-09T02:21:35;93344.09;;;4.47;67.65
59289;BME280;45056;47.602;9.886;2023-04-09T02:24:04;93351.03;;;4.41;67.68
59289;BME280;45056;47.602;9.886;2023-04-09T02:26:32;93342.59;;;4.36;68.03
59289;BME280;45056;47.602;9.886;2023-04-09T02:29:00;93346.44;;;4.35;68.00
59289;BME280;45056;47.602;9.886;2023-04-09T02:31:28;93343.75;;;4.31;67.99
59289;BME280;45056;47.602;9.886;2023-04-09T02:33:57;93342.22;;;4.30;67.99
59289;BME280;45056;47.602;9.886;2023-04-09T02:36:26;93340.31;;;4.30;67.90
59289;BME280;45056;47.602;9.886;2023-04-09T02:38:54;93350.31;;;4.30;67.79
59289;BME280;45056;47.602;9.886;2023-04-09T02:41:22;93348.75;;;4.29;67.92
59289;BME280;45056;47.602;9.886;2023-04-09T02:43:50;93346.84;;;4.26;67.79
59289;BME280;45056;47.602;9.886;2023-04-09T02:46:18;93344.16;;;4.26;67.91
59289;BME280;45056;47.602;9.886;2023-04-09T02:48:46;93347.25;;;4.24;68.00
59289;BME280;45056;47.602;9.886;2023-04-09T02:51:15;93342.25;;;4.26;67.93
59289;BME280;45056;47.602;9.886;2023-04-09T02:53:43;93341.84;;;4.28;67.71
59289;BME280;45056;47.602;9.886;2023-04-09T02:56:11;93343.00;;;4.27;67.52
59289;BME280;45056;47.602;9.886;2023-04-09T02:58:39;93338.78;;;4.29;67.58
59289;BME280;45056;47.602;9.886;2023-04-09T03:01:07;93332.22;;;4.30;67.58
59289;BME280;45056;47.602;9.886;2023-04-09T03:03:35;93333.75;;;4.31;67.62
59289;BME280;45056;47.602;9.886;2023-04-09T03:06:05;93337.22;;;4.32;67.43
59289;BME280;45056;47.602;9.886;2023-04-09T03:08:34;93331.44;;;4.33;67.17
59289;BME280;45056;47.602;9.886;2023-04-09T03:11:02;93331.44;;;4.33;67.43
59289;BME280;45056;47.602;9.886;2023-04-09T03:13:31;93327.97;;;4.33;67.05
59289;BME280;45056;47.602;9.886;2023-04-09T03:15:58;93319.88;;;4.33;67.30
59289;BME280;45056;47.602;9.886;2023-04-09T03:18:26;93325.28;;;4.33;66.93
59289;BME280;45056;47.602;9.886;2023-04-09T03:20:54;93326.81;;;4.34;66.98
59289;BME280;45056;47.602;9.886;2023-04-09T03:23:22;93327.59;;;4.35;66.75
59289;BME280;45056;47.602;9.886;2023-04-09T03:26:00;93322.94;;;4.35;66.82
59289;BME280;45056;47.602;9.886;2023-04-09T03:28:29;93324.09;;;4.34;66.66
59289;BME280;45056;47.602;9.886;2023-04-09T03:30:57;93322.19;;;4.35;66.51
59289;BME280;45056;47.602;9.886;2023-04-09T03:33:25;93326.06;;;4.33;66.46
59289;BME280;45056;47.602;9.886;2023-04-09T03:35:53;93320.28;;;4.31;66.37
59289;BME280;45056;47.602;9.886;2023-04-09T03:38:21;93322.19;;;4.31;66.15
59289;BME280;45056;47.602;9.886;2023-04-09T03:40:49;93324.53;;;4.29;66.25
59289;BME280;45056;47.602;9.886;2023-04-09T03:43:19;93325.31;;;4.29;66.01
59289;BME280;45056;47.602;9.886;2023-04-09T03:45:47;93326.84;;;4.30;65.94
59289;BME280;45056;47.602;9.886;2023-04-09T03:48:15;93327.22;;;4.29;65.88
59289;BME280;45056;47.602;9.886;2023-04-09T03:50:43;93316.84;;;4.27;66.03
59289;BME280;45056;47.602;9.886;2023-04-09T03:53:11;93322.25;;;4.24;65.85
59289;BME280;45056;47.602;9.886;2023-04-09T03:55:39;93319.16;;;4.22;66.18
59289;BME280;45056;47.602;9.886;2023-04-09T03:58:07;93321.88;;;4.18;65.93
59289;BME280;45056;47.602;9.886;2023-04-09T04:00:36;93317.25;;;4.15;65.86
59289;BME280;45056;47.602;9.886;2023-04-09T04:03:04;93316.88;;;4.13;65.87
59289;BME280;45056;47.602;9.886;2023-04-09T04:05:32;93320.00;;;4.11;65.94
59289;BME280;45056;47.602;9.886;2023-04-09T04:08:00;93316.13;;;4.09;66.25
59289;BME280;45056;47.602;9.886;2023-04-09T04:10:28;93321.94;;;4.07;66.12
59289;BME280;45056;47.602;9.886;2023-04-09T04:12:56;93320.41;;;4.06;66.08
59289;BME280;45056;47.602;9.886;2023-04-09T04:15:24;93318.84;;;4.05;65.75
59289;BME280;45056;47.602;9.886;2023-04-09T04:17:53;93325.00;;;4.02;65.71
59289;BME280;45056;47.602;9.886;2023-04-09T04:20:22;93321.94;;;4.00;65.45
59289;BME280;45056;47.602;9.886;2023-04-09T04:22:50;93326.94;;;3.98;65.61
59289;BME280;45056;47.602;9.886;2023-04-09T04:25:17;93329.25;;;3.96;65.37
59289;BME280;45056;47.602;9.886;2023-04-09T04:27:46;93336.19;;;3.93;65.40
59289;BME280;45056;47.602;9.886;2023-04-09T04:30:14;93342.38;;;3.90;65.68
59289;BME280;45056;47.602;9.886;2023-04-09T04:32:41;93337.34;;;3.88;65.53
59289;BME280;45056;47.602;9.886;2023-04-09T04:35:11;93341.22;;;3.87;65.54
59289;BME280;45056;47.602;9.886;2023-04-09T04:37:39;93336.59;;;3.84;65.34
59289;BME280;45056;47.602;9.886;2023-04-09T04:40:08;93342.75;;;3.81;65.33
59289;BME280;45056;47.602;9.886;2023-04-09T04:42:36;93342.38;;;3.79;65.63
59289;BME280;45056;47.602;9.886;2023-04-09T04:45:05;93342.38;;;3.79;65.44
59289;BME280;45056;47.602;9.886;2023-04-09T04:47:34;93344.28;;;3.79;65.42
59289;BME280;45056;47.602;9.886;2023-04-09T04:50:02;93346.63;;;3.80;65.55
59289;BME280;45056;47.602;9.886;2023-04-09T04:52:32;93347.00;;;3.82;65.48
59289;BME280;45056;47.602;9.886;2023-04-09T04:55:00;93351.59;;;3.82;65.54
59289;BME280;45056;47.602;9.886;2023-04-09T04:57:28;93347.00;;;3.82;65.73
59289;BME280;45056;47.602;9.886;2023-04-09T04:59:56;93340.06;;;3.81;65.83
59289;BME280;45056;47.602;9.886;2023-04-09T05:02:24;93337.75;;;3.80;65.81
59289;BME280;45056;47.602;9.886;2023-04-09T05:04:52;93355.06;;;3.79;66.01
59289;BME280;45056;47.602;9.886;2023-04-09T05:07:20;93348.16;;;3.78;66.10
59289;BME280;45056;47.602;9.886;2023-04-09T05:09:49;93355.47;;;3.77;66.30
59289;BME280;45056;47.602;9.886;2023-04-09T05:12:17;93349.28;;;3.73;66.34
59289;BME280;45056;47.602;9.886;2023-04-09T05:14:46;93356.63;;;3.69;66.46
59289;BME280;45056;47.602;9.886;2023-04-09T05:17:14;93352.38;;;3.68;66.53
59289;BME280;45056;47.602;9.886;2023-04-09T05:19:42;93357.78;;;3.68;66.73
59289;BME280;45056;47.602;9.886;2023-04-09T05:22:10;93357.78;;;3.68;66.70
59289;BME280;45056;47.602;9.886;2023-04-09T05:24:38;93353.53;;;3.67;66.60
59289;BME280;45056;47.602;9.886;2023-04-09T05:27:07;93351.25;;;3.61;67.06
59289;BME280;45056;47.602;9.886;2023-04-09T05:29:35;93352.41;;;3.57;67.16
59289;BME280;45056;47.602;9.886;2023-04-09T05:32:03;93352.41;;;3.50;67.62
59289;BME280;45056;47.602;9.886;2023-04-09T05:34:32;93348.97;;;3.49;67.80
59289;BME280;45056;47.602;9.886;2023-04-09T05:37:00;93356.63;;;3.51;67.78
59289;BME280;45056;47.602;9.886;2023-04-09T05:39:28;93353.16;;;3.54;67.54
59289;BME280;45056;47.602;9.886;2023-04-09T05:41:56;93355.50;;;3.59;67.65
59289;BME280;45056;47.602;9.886;2023-04-09T05:44:25;93350.09;;;3.63;67.73
59289;BME280;45056;47.602;9.886;2023-04-09T05:46:53;93346.63;;;3.66;67.73
59289;BME280;45056;47.602;9.886;2023-04-09T05:49:22;93346.25;;;3.67;67.62
59289;BME280;45056;47.602;9.886;2023-04-09T05:51:51;93348.16;;;3.70;67.70
59289;BME280;45056;47.602;9.886;2023-04-09T05:54:20;93349.31;;;3.77;67.49
59289;BME280;45056;47.602;9.886;2023-04-09T05:56:48;93353.13;;;3.83;67.41
59289;BME280;45056;47.602;9.886;2023-04-09T05:59:17;93350.03;;;3.92;67.39
59289;BME280;45056;47.602;9.886;2023-04-09T06:01:47;93357.72;;;4.00;67.47
59289;BME280;45056;47.602;9.886;2023-04-09T06:04:15;93351.16;;;4.05;67.25
59289;BME280;45056;47.602;9.886;2023-04-09T06:06:43;93354.22;;;4.11;67.06
59289;BME280;45056;47.602;9.886;2023-04-09T06:09:11;93354.59;;;4.16;66.86
59289;BME280;45056;47.602;9.886;2023-04-09T06:11:39;93358.41;;;4.26;66.88
59289;BME280;45056;47.602;9.886;2023-04-09T06:14:07;93351.44;;;4.36;66.80
59289;BME280;45056;47.602;9.886;2023-04-09T06:16:37;93361.78;;;4.45;66.51
59289;BME280;45056;47.602;9.886;2023-04-09T06:19:06;93361.38;;;4.54;66.47
59289;BME280;45056;47.602;9.886;2023-04-09T06:21:34;93359.41;;;4.61;66.44
59289;BME280;45056;47.602;9.886;2023-04-09T06:24:03;93363.22;;;4.71;66.07
59289;BME280;45056;47.602;9.886;2023-04-09T06:26:31;93365.84;;;4.82;66.05
59289;BME280;45056;47.602;9.886;2023-04-09T06:28:59;93366.56;;;4.94;65.76
59289;BME280;45056;47.602;9.886;2023-04-09T06:31:27;93369.59;;;5.03;65.85
59289;BME280;45056;47.602;9.886;2023-04-09T06:33:55;93363.34;;;5.13;65.57
59289;BME280;45056;47.602;9.886;2023-04-09T06:36:24;93362.09;;;5.25;65.16
59289;BME280;45056;47.602;9.886;2023-04-09T06:38:53;93363.59;;;5.33;65.00
59289;BME280;45056;47.602;9.886;2023-04-09T06:41:21;93360.88;;;5.37;64.56
59289;BME280;45056;47.602;9.886;2023-04-09T06:43:50;93366.63;;;5.39;64.75
59289;BME280;45056;47.602;9.886;2023-04-09T06:46:18;93368.53;;;5.42;64.74
59289;BME280;45056;47.602;9.886;2023-04-09T06:48:46;93356.19;;;5.45;64.60
59289;BME280;45056;47.602;9.886;2023-04-09T06:51:14;93366.56;;;5.50;64.59
59289;BME280;45056;47.602;9.886;2023-04-09T06:53:44;93361.09;;;5.57;64.35
59289;BME280;45056;47.602;9.886;2023-04-09T06:56:13;93372.59;;;6.11;63.48
59289;BME280;45056;47.602;9.886;2023-04-09T06:58:41;93373.56;;;7.21;61.63
59289;BME280;45056;47.602;9.886;2023-04-09T07:01:09;93374.13;;;8.07;58.70
59289;BME280;45056;47.602;9.886;2023-04-09T07:03:39;93378.09;;;8.67;56.84
59289;BME280;45056;47.602;9.886;2023-04-09T07:06:07;93371.97;;;9.86;56.40
59289;BME280;45056;47.602;9.886;2023-04-09T07:08:35;93371.16;;;11.46;54.65
59289;BME280;45056;47.602;9.886;2023-04-09T07:11:04;93367.06;;;13.05;51.40
59289;BME280;45056;47.602;9.886;2023-04-09T07:13:32;93365.03;;;14.28;47.64
59289;BME280;45056;47.602;9.886;2023-04-09T07:16:00;93367.44;;;15.00;44.64
59289;BME280;45056;47.602;9.886;2023-04-09T07:18:29;93369.59;;;14.78;41.74
59289;BME280;45056;47.602;9.886;2023-04-09T07:20:57;93368.03;;;14.11;42.64
59289;BME280;45056;47.602;9.886;2023-04-09T07:23:25;93365.22;;;13.33;43.45
59289;BME280;45056;47.602;9.886;2023-04-09T07:25:53;93373.94;;;12.65;44.47
59289;BME280;45056;47.602;9.886;2023-04-09T07:28:23;93368.25;;;12.02;45.63
59289;BME280;45056;47.602;9.886;2023-04-09T07:30:51;93377.78;;;11.58;46.85
59289;BME280;45056;47.602;9.886;2023-04-09T07:33:19;93374.06;;;11.52;47.33
59289;BME280;45056;47.602;9.886;2023-04-09T07:35:47;93369.88;;;12.12;46.92
59289;BME280;45056;47.602;9.886;2023-04-09T07:38:15;93365.97;;;13.02;45.43
59289;BME280;45056;47.602;9.886;2023-04-09T07:40:43;93369.09;;;13.95;43.80
59289;BME280;45056;47.602;9.886;2023-04-09T07:43:11;93370.69;;;14.80;42.29
59289;BME280;45056;47.602;9.886;2023-04-09T07:45:40;93366.09;;;15.48;41.44
59289;BME280;45056;47.602;9.886;2023-04-09T07:48:10;93378.41;;;16.20;41.18
59289;BME280;45056;47.602;9.886;2023-04-09T07:50:38;93370.69;;;16.73;39.31
59289;BME280;45056;47.602;9.886;2023-04-09T07:53:06;93370.41;;;16.71;38.89
59289;BME280;45056;47.602;9.886;2023-04-09T07:55:34;93375.63;;;16.29;39.30
59289;BME280;45056;47.602;9.886;2023-04-09T07:58:02;93378.25;;;15.99;39.61
59289;BME280;45056;47.602;9.886;2023-04-09T08:00:30;93369.91;;;15.84;40.04
59289;BME280;45056;47.602;9.886;2023-04-09T08:03:00;93368.66;;;15.95;39.82
59289;BME280;45056;47.602;9.886;2023-04-09T08:05:29;93367.91;;;15.94;40.07
59289;BME280;45056;47.602;9.886;2023-04-09T08:07:57;93372.16;;;15.95;39.98
59289;BME280;45056;47.602;9.886;2023-04-09T08:10:25;93373.50;;;16.00;39.91
59289;BME280;45056;47.602;9.886;2023-04-09T08:12:53;93379.91;;;16.21;39.89
59289;BME280;45056;47.602;9.886;2023-04-09T08:15:21;93378.28;;;16.39;40.00
59289;BME280;45056;47.602;9.886;2023-04-09T08:17:49;93385.75;;;16.63;40.17
59289;BME280;45056;47.602;9.886;2023-04-09T08:20:19;93385.56;;;16.81;39.60
59289;BME280;45056;47.602;9.886;2023-04-09T08:22:47;93384.19;;;16.86;38.80
59289;BME280;45056;47.602;9.886;2023-04-09T08:25:15;93373.41;;;16.58;38.03
59289;BME280;45056;47.602;9.886;2023-04-09T08:27:43;93390.97;;;16.36;37.93
59289;BME280;45056;47.602;9.886;2023-04-09T08:30:11;93388.63;;;16.44;37.71
59289;BME280;45056;47.602;9.886;2023-04-09T08:32:39;93389.09;;;16.42;37.38
59289;BME280;45056;47.602;9.886;2023-04-09T08:35:08;93399.41;;;15.99;36.94
59289;BME280;45056;47.602;9.886;2023-04-09T08:37:37;93394.59;;;15.41;37.53
59289;BME280;45056;47.602;9.886;2023-04-09T08:40:07;93391.34;;;14.91;38.21
59289;BME280;45056;47.602;9.886;2023-04-09T08:42:43;93384.66;;;14.45;38.92
59289;BME280;45056;47.602;9.886;2023-04-09T08:45:12;93380.06;;;14.05;39.39
59289;BME280;45056;47.602;9.886;2023-04-09T08:47:40;93380.53;;;13.62;40.25
59289;BME280;45056;47.602;9.886;2023-04-09T08:50:10;93381.75;;;13.30;41.05
59289;BME280;45056;47.602;9.886;2023-04-09T08:52:39;93383.28;;;13.08;42.26
59289;BME280;45056;47.602;9.886;2023-04-09T08:55:10;93379.22;;;12.81;42.73
59289;BME280;45056;47.602;9.886;2023-04-09T08:57:39;93387.69;;;12.39;43.42
59289;BME280;45056;47.602;9.886;2023-04-09T09:00:09;93388.94;;;11.99;44.37
59289;BME280;45056;47.602;9.886;2023-04-09T09:02:38;93388.69;;;11.71;44.79
59289;BME280;45056;47.602;9.886;2023-04-09T09:05:41;93394.16;;;11.71;44.99
59289;BME280;45056;47.602;9.886;2023-04-09T09:08:13;93385.13;;;12.22;45.30
59289;BME280;45056;47.602;9.886;2023-04-09T09:10:51;93389.34;;;13.03;44.97
59289;BME280;45056;47.602;9.886;2023-04-09T09:13:21;93394.81;;;13.57;42.77
59289;BME280;45056;47.602;9.886;2023-04-09T09:15:52;93390.88;;;13.67;42.02
59289;BME280;45056;47.602;9.886;2023-04-09T09:18:38;93395.47;;;13.39;41.31
59289;BME280;45056;47.602;9.886;2023-04-09T09:21:10;93387.69;;;13.06;41.99
59289;BME280;45056;47.602;9.886;2023-04-09T09:23:40;93385.53;;;12.78;41.74
59289;BME280;45056;47.602;9.886;2023-04-09T09:26:12;93392.41;;;12.61;42.25
59289;BME280;45056;47.602;9.886;2023-04-09T09:28:42;93392.13;;;12.46;43.59
59289;BME280;45056;47.602;9.886;2023-04-09T09:31:11;93391.34;;;12.45;44.39
59289;BME280;45056;47.602;9.886;2023-04-09T09:33:40;93386.75;;;12.55;44.89
59289;BME280;45056;47.602;9.886;2023-04-09T09:36:09;93388.34;;;12.65;44.46
59289;BME280;45056;47.602;9.886;2023-04-09T09:38:52;93379.84;;;12.86;44.44
59289;BME280;45056;47.602;9.886;2023-04-09T09:41:23;93380.53;;;12.99;43.42
59289;BME280;45056;47.602;9.886;2023-04-09T09:43:51;93384.34;;;13.02;42.25
59289;BME280;45056;47.602;9.886;2023-04-09T09:46:20;93387.88;;;12.89;42.34
59289;BME280;45056;47.602;9.886;2023-04-09T09:48:49;93388.00;;;12.63;42.64
59289;BME280;45056;47.602;9.886;2023-04-09T09:51:18;93389.38;;;12.23;43.03
59289;BME280;45056;47.602;9.886;2023-04-09T09:53:56;93388.00;;;11.80;43.21
59289;BME280;45056;47.602;9.886;2023-04-09T09:56:29;93392.81;;;11.50;44.21
59289;BME280;45056;47.602;9.886;2023-04-09T09:59:06;93388.69;;;11.32;45.26
59289;BME280;45056;47.602;9.886;2023-04-09T10:01:39;93391.84;;;11.31;46.96
59289;BME280;45056;47.602;9.886;2023-04-09T10:04:13;93389.03;;;11.34;47.15
59289;BME280;45056;47.602;9.886;2023-04-09T10:06:43;93387.16;;;11.44;46.92
59289;BME280;45056;47.602;9.886;2023-04-09T10:09:13;93386.63;;;11.49;46.50
59289;BME280;45056;47.602;9.886;2023-04-09T10:11:43;93391.84;;;11.44;46.28
59289;BME280;45056;47.602;9.886;2023-04-09T10:14:13;93391.75;;;11.34;46.30
59289;BME280;45056;47.602;9.886;2023-04-09T10:16:45;93387.91;;;11.32;45.95
59289;BME280;45056;47.602;9.886;2023-04-09T10:19:14;93384.88;;;11.43;45.89
59289;BME280;45056;47.602;9.886;2023-04-09T10:21:50;93393.38;;;11.45;44.94
59289;BME280;45056;47.602;9.886;2023-04-09T10:24:24;93387.81;;;11.35;44.98
59289;BME280;45056;47.602;9.886;2023-04-09T10:26:53;93385.09;;;11.35;45.42
59289;BME280;45056;47.602;9.886;2023-04-09T10:29:27;93382.78;;;11.47;45.55
59289;BME280;45056;47.602;9.886;2023-04-09T10:32:03;93385.41;;;11.50;45.12
59289;BME280;45056;47.602;9.886;2023-04-09T10:34:36;93385.75;;;11.39;44.75
59289;BME280;45056;47.602;9.886;2023-04-09T10:37:07;93381.50;;;11.25;44.79
59289;BME280;45056;47.602;9.886;2023-04-09T10:39:43;93386.50;;;11.14;44.89
59289;BME280;45056;47.602;9.886;2023-04-09T10:42:17;93385.53;;;11.08;44.71
59289;BME280;45056;47.602;9.886;2023-04-09T10:45:04;93380.25;;;11.01;44.94
59289;BME280;45056;47.602;9.886;2023-04-09T10:47:35;93379.28;;;10.94;44.85
59289;BME280;45056;47.602;9.886;2023-04-09T10:50:17;93384.16;;;10.87;44.75
59289;BME280;45056;47.602;9.886;2023-04-09T10:52:47;93387.75;;;10.83;44.96
59289;BME280;45056;47.602;9.886;2023-04-09T10:55:33;93385.34;;;10.86;44.59
59289;BME280;45056;47.602;9.886;2023-04-09T10:58:03;93377.97;;;10.86;44.32
59289;BME280;45056;47.602;9.886;2023-04-09T11:00:36;93387.16;;;10.76;44.05
59289;BME280;45056;47.602;9.886;2023-04-09T11:03:19;93380.69;;;10.57;43.67
59289;BME280;45056;47.602;9.886;2023-04-09T11:05:52;93380.22;;;10.45;44.46
59289;BME280;45056;47.602;9.886;2023-04-09T11:08:28;93384.16;;;10.44;45.31
59289;BME280;45056;47.602;9.886;2023-04-09T11:10:59;93381.34;;;10.48;45.26
59289;BME280;45056;47.602;9.886;2023-04-09T11:13:29;93380.88;;;10.49;44.96
59289;BME280;45056;47.602;9.886;2023-04-09T11:15:59;93375.38;;;10.53;44.81
59289;BME280;45056;47.602;9.886;2023-04-09T11:18:29;93381.38;;;10.61;44.68
59289;BME280;45056;47.602;9.886;2023-04-09T11:21:01;93383.56;;;10.66;44.14
59289;BME280;45056;47.602;9.886;2023-04-09T11:23:30;93382.78;;;10.65;43.36
59289;BME280;45056;47.602;9.886;2023-04-09T11:26:00;93382.25;;;10.71;43.77
59289;BME280;45056;47.602;9.886;2023-04-09T11:28:28;93379.53;;;10.71;43.64
59289;BME280;45056;47.602;9.886;2023-04-09T11:30:56;93386.19;;;10.70;43.76
59289;BME280;45056;47.602;9.886;2023-04-09T11:33:30;93381.84;;;10.72;43.40
59289;BME280;45056;47.602;9.886;2023-04-09T11:35:59;93380.31;;;10.71;43.68
59289;BME280;45056;47.602;9.886;2023-04-09T11:38:30;93381.28;;;10.64;44.24
59289;BME280;45056;47.602;9.886;2023-04-09T11:40:58;93379.16;;;10.56;43.97
59289;BME280;45056;47.602;9.886;2023-04-09T11:43:29;93376.22;;;10.50;44.03
59289;BME280;45056;47.602;9.886;2023-04-09T11:45:58;93374.25;;;10.50;43.95
59289;BME280;45056;47.602;9.886;2023-04-09T11:48:26;93382.34;;;10.54;43.41
59289;BME280;45056;47.602;9.886;2023-04-09T11:50:55;93380.03;;;10.52;42.76
59289;BME280;45056;47.602;9.886;2023-04-09T11:53:29;93383.63;;;10.49;41.83
59289;BME280;45056;47.602;9.886;2023-04-09T11:55:58;93391.78;;;10.49;41.78
59289;BME280;45056;47.602;9.886;2023-04-09T11:58:26;93391.56;;;10.57;42.18
59289;BME280;45056;47.602;9.886;2023-04-09T12:00:57;93392.06;;;10.68;41.79
59289;BME280;45056;47.602;9.886;2023-04-09T12:03:29;93387.06;;;10.79;41.55
59289;BME280;45056;47.602;9.886;2023-04-09T12:05:59;93382.44;;;10.93;40.87
59289;BME280;45056;47.602;9.886;2023-04-09T12:08:28;93387.78;;;11.09;40.79
59289;BME280;45056;47.602;9.886;2023-04-09T12:11:03;93383.56;;;11.34;40.64
59289;BME280;45056;47.602;9.886;2023-04-09T12:13:34;93383.91;;;11.62;37.91
59289;BME280;45056;47.602;9.886;2023-04-09T12:16:04;93367.94;;;11.87;36.61
59289;BME280;45056;47.602;9.886;2023-04-09T12:18:34;93372.50;;;12.03;37.58
59289;BME280;45056;47.602;9.886;2023-04-09T12:21:04;93370.28;;;12.23;37.33
59289;BME280;45056;47.602;9.886;2023-04-09T12:23:32;93384.34;;;12.22;38.84
59289;BME280;45056;47.602;9.886;2023-04-09T12:26:00;93378.53;;;12.33;38.34
59289;BME280;45056;47.602;9.886;2023-04-09T12:28:28;93376.50;;;12.46;38.73
59289;BME280;45056;47.602;9.886;2023-04-09T12:30:56;93376.28;;;12.53;38.46
59289;BME280;45056;47.602;9.886;2023-04-09T12:33:26;93369.56;;;12.67;38.99
59289;BME280;45056;47.602;9.886;2023-04-09T12:35:54;93368.16;;;12.85;39.23
59289;BME280;45056;47.602;9.886;2023-04-09T12:38:23;93368.03;;;12.89;38.13
59289;BME280;45056;47.602;9.886;2023-04-09T12:40:52;93365.88;;;12.83;38.03
59289;BME280;45056;47.602;9.886;2023-04-09T12:43:20;93363.31;;;12.67;38.37
59289;BME280;45056;47.602;9.886;2023-04-09T12:45:48;93367.94;;;12.57;39.15
59289;BME280;45056;47.602;9.886;2023-04-09T12:48:17;93371.47;;;12.58;39.11
59289;BME280;45056;47.602;9.886;2023-04-09T12:50:46;93374.31;;;12.54;38.20
59289;BME280;45056;47.602;9.886;2023-04-09T12:53:14;93376.28;;;12.53;38.58
59289;BME280;45056;47.602;9.886;2023-04-09T12:55:42;93371.41;;;12.48;37.96
59289;BME280;45056;47.602;9.886;2023-04-09T12:58:10;93364.78;;;12.36;37.51
59289;BME280;45056;47.602;9.886;2023-04-09T13:00:38;93364.91;;;12.33;37.92
59289;BME280;45056;47.602;9.886;2023-04-09T13:03:06;93372.19;;;12.36;38.41
59289;BME280;45056;47.602;9.886;2023-04-09T13:05:34;93359.28;;;12.49;38.29
59289;BME280;45056;47.602;9.886;2023-04-09T13:08:03;93361.44;;;12.54;37.04
59289;BME280;45056;47.602;9.886;2023-04-09T13:10:32;93356.59;;;12.59;37.50
59289;BME280;45056;47.602;9.886;2023-04-09T13:13:01;93359.34;;;12.59;37.66
59289;BME280;45056;47.602;9.886;2023-04-09T13:15:29;93359.97;;;12.63;37.52
59289;BME280;45056;47.602;9.886;2023-04-09T13:17:57;93354.38;;;12.66;38.18
59289;BME280;45056;47.602;9.886;2023-04-09T13:20:25;93347.16;;;12.73;38.21